sensor_id;sensor_type;location;lat;lon;timestamp;P1;durP1;ratioP1;P2;durP2;ratioP2
77449;SDS011;66536;53.150;18.172;2023-08-12T00:00:56;10.80;;;5.20;;
77449;SDS011;66536;53.150;18.172;2023-08-12T00:03:32;13.20;;;5.70;;
77449;SDS011;66536;53.150;18.172;2023-08-12T00:05:59;11.50;;;5.20;;
77449;SDS011;66536;53.150;18.172;2023-08-12T00:08:31;8.70;;;5.00;;
77449;SDS011;66536;53.150;18.172;2023-08-12T00:10:57;8.90;;;4.70;;
77449;SDS011;66536;53.150;18.172;2023-08-12T00:13:24;13.80;;;4.90;;
77449;SDS011;66536;53.150;18.172;2023-08-12T00:15:51;9.30;;;4.70;;
77449;SDS011;66536;53.150;18.172;2023-08-12T00:18:18;15.70;;;5.40;;
77449;SDS011;66536;53.150;18.172;2023-08-12T00:20:45;12.70;;;5.60;;
77449;SDS011;66536;53.150;18.172;2023-08-12T00:23:11;8.60;;;5.40;;
77449;SDS011;66536;53.150;18.172;2023-08-12T00:25:38;10.20;;;5.60;;
77449;SDS011;66536;53.150;18.172;2023-08-12T00:28:05;8.30;;;5.80;;
77449;SDS011;66536;53.150;18.172;2023-08-12T00:30:32;8.80;;;5.70;;
77449;SDS011;66536;53.150;18.172;2023-08-12T00:32:58;10.10;;;5.50;;
77449;SDS011;66536;53.150;18.172;2023-08-12T00:35:25;8.30;;;5.80;;
77449;SDS011;66536;53.150;18.172;2023-08-12T00:37:52;10.90;;;5.50;;
77449;SDS011;66536;53.150;18.172;2023-08-12T00:40:18;7.70;;;5.30;;
77449;SDS011;66536;53.150;18.172;2023-08-12T00:42:47;10.70;;;5.70;;
77449;SDS011;66536;53.150;18.172;2023-08-12T00:45:14;9.60;;;5.90;;
77449;SDS011;66536;53.150;18.172;2023-08-12T00:47:41;11.80;;;5.20;;
77449;SDS011;66536;53.150;18.172;2023-08-12T00:50:10;13.20;;;4.80;;
77449;SDS011;66536;53.150;18.172;2023-08-12T00:52:39;18.60;;;5.70;;
77449;SDS011;66536;53.150;18.172;2023-08-12T00:55:07;10.80;;;6.20;;
77449;SDS011;66536;53.150;18.172;2023-08-12T00:57:34;12.70;;;5.80;;
77449;SDS011;66536;53.150;18.172;2023-08-12T01:00:04;16.10;;;6.20;;
77449;SDS011;66536;53.150;18.172;2023-08-12T01:02:31;14.50;;;5.50;;
77449;SDS011;66536;53.150;18.172;2023-08-12T01:04:58;12.20;;;5.80;;
77449;SDS011;66536;53.150;18.172;2023-08-12T01:07:25;12.80;;;6.50;;
77449;SDS011;66536;53.150;18.172;2023-08-12T01:09:52;12.60;;;5.90;;
77449;SDS011;66536;53.150;18.172;2023-08-12T01:12:23;10.70;;;5.60;;
77449;SDS011;66536;53.150;18.172;2023-08-12T01:17:37;12.00;;;5.50;;
77449;SDS011;66536;53.150;18.172;2023-08-12T01:20:08;12.30;;;5.60;;
77449;SDS011;66536;53.150;18.172;2023-08-12T01:22:37;9.60;;;5.60;;
77449;SDS011;66536;53.150;18.172;2023-08-12T01:25:06;12.80;;;5.80;;
77449;SDS011;66536;53.150;18.172;2023-08-12T01:27:35;8.60;;;5.50;;
77449;SDS011;66536;53.150;18.172;2023-08-12T01:30:03;11.50;;;5.70;;
77449;SDS011;66536;53.150;18.172;2023-08-12T01:32:36;10.90;;;5.70;;
77449;SDS011;66536;53.150;18.172;2023-08-12T01:35:20;10.80;;;5.70;;
77449;SDS011;66536;53.150;18.172;2023-08-12T01:37:52;11.30;;;6.00;;
77449;SDS011;66536;53.150;18.172;2023-08-12T01:40:22;11.00;;;5.90;;
77449;SDS011;66536;53.150;18.172;2023-08-12T01:42:50;9.60;;;5.80;;
77449;SDS011;66536;53.150;18.172;2023-08-12T01:45:18;10.40;;;5.80;;
77449;SDS011;66536;53.150;18.172;2023-08-12T01:47:46;12.70;;;6.00;;
77449;SDS011;66536;53.150;18.172;2023-08-12T01:50:16;14.60;;;5.90;;
77449;SDS011;66536;53.150;18.172;2023-08-12T01:52:43;9.70;;;6.20;;
77449;SDS011;66536;53.150;18.172;2023-08-12T01:55:10;11.00;;;5.90;;
77449;SDS011;66536;53.150;18.172;2023-08-12T01:57:36;11.70;;;6.00;;
77449;SDS011;66536;53.150;18.172;2023-08-12T02:00:04;14.10;;;5.80;;
77449;SDS011;66536;53.150;18.172;2023-08-12T02:02:43;12.60;;;5.70;;
77449;SDS011;66536;53.150;18.172;2023-08-12T02:05:13;11.00;;;5.90;;
77449;SDS011;66536;53.150;18.172;2023-08-12T02:07:40;14.40;;;6.00;;
77449;SDS011;66536;53.150;18.172;2023-08-12T02:10:10;9.70;;;5.60;;
77449;SDS011;66536;53.150;18.172;2023-08-12T02:12:37;12.00;;;6.10;;
77449;SDS011;66536;53.150;18.172;2023-08-12T02:15:04;9.30;;;5.60;;
77449;SDS011;66536;53.150;18.172;2023-08-12T02:17:31;10.60;;;5.50;;
77449;SDS011;66536;53.150;18.172;2023-08-12T02:19:57;8.80;;;5.10;;
77449;SDS011;66536;53.150;18.172;2023-08-12T02:22:24;7.70;;;5.60;;
77449;SDS011;66536;53.150;18.172;2023-08-12T02:24:51;8.80;;;5.70;;
77449;SDS011;66536;53.150;18.172;2023-08-12T02:27:17;8.00;;;5.20;;
77449;SDS011;66536;53.150;18.172;2023-08-12T02:29:45;11.70;;;5.50;;
77449;SDS011;66536;53.150;18.172;2023-08-12T02:32:12;12.00;;;5.20;;
77449;SDS011;66536;53.150;18.172;2023-08-12T02:34:38;8.60;;;5.70;;
77449;SDS011;66536;53.150;18.172;2023-08-12T02:37:05;11.70;;;6.20;;
77449;SDS011;66536;53.150;18.172;2023-08-12T02:39:32;9.30;;;5.60;;
77449;SDS011;66536;53.150;18.172;2023-08-12T02:41:58;9.80;;;5.50;;
77449;SDS011;66536;53.150;18.172;2023-08-12T02:44:25;9.30;;;6.10;;
77449;SDS011;66536;53.150;18.172;2023-08-12T02:46:51;9.60;;;5.40;;
77449;SDS011;66536;53.150;18.172;2023-08-12T02:49:18;9.00;;;5.30;;
77449;SDS011;66536;53.150;18.172;2023-08-12T02:51:45;9.00;;;5.20;;
77449;SDS011;66536;53.150;18.172;2023-08-12T02:54:11;7.90;;;5.30;;
77449;SDS011;66536;53.150;18.172;2023-08-12T02:56:39;7.90;;;5.70;;
77449;SDS011;66536;53.150;18.172;2023-08-12T02:59:06;8.50;;;5.30;;
77449;SDS011;66536;53.150;18.172;2023-08-12T03:01:33;9.30;;;5.80;;
77449;SDS011;66536;53.150;18.172;2023-08-12T03:03:59;8.80;;;5.50;;
77449;SDS011;66536;53.150;18.172;2023-08-12T03:06:26;8.50;;;5.90;;
77449;SDS011;66536;53.150;18.172;2023-08-12T03:08:53;15.90;;;6.50;;
77449;SDS011;66536;53.150;18.172;2023-08-12T03:11:19;12.00;;;7.10;;
77449;SDS011;66536;53.150;18.172;2023-08-12T03:13:46;9.30;;;5.90;;
77449;SDS011;66536;53.150;18.172;2023-08-12T03:16:13;15.10;;;7.60;;
77449;SDS011;66536;53.150;18.172;2023-08-12T03:18:41;14.40;;;7.10;;
77449;SDS011;66536;53.150;18.172;2023-08-12T03:21:08;8.90;;;6.10;;
77449;SDS011;66536;53.150;18.172;2023-08-12T03:23:36;11.00;;;6.30;;
77449;SDS011;66536;53.150;18.172;2023-08-12T03:26:03;9.40;;;5.70;;
77449;SDS011;66536;53.150;18.172;2023-08-12T03:28:31;8.50;;;6.10;;
77449;SDS011;66536;53.150;18.172;2023-08-12T03:30:59;11.70;;;6.40;;
77449;SDS011;66536;53.150;18.172;2023-08-12T03:33:25;10.80;;;6.30;;
77449;SDS011;66536;53.150;18.172;2023-08-12T03:35:52;13.60;;;7.70;;
77449;SDS011;66536;53.150;18.172;2023-08-12T03:38:19;12.90;;;7.50;;
77449;SDS011;66536;53.150;18.172;2023-08-12T03:40:46;9.60;;;6.20;;
77449;SDS011;66536;53.150;18.172;2023-08-12T03:43:16;12.00;;;6.60;;
77449;SDS011;66536;53.150;18.172;2023-08-12T03:45:43;12.40;;;6.40;;
77449;SDS011;66536;53.150;18.172;2023-08-12T03:48:10;8.50;;;5.90;;
77449;SDS011;66536;53.150;18.172;2023-08-12T03:50:39;10.20;;;5.80;;
77449;SDS011;66536;53.150;18.172;2023-08-12T03:53:07;10.80;;;6.20;;
77449;SDS011;66536;53.150;18.172;2023-08-12T03:55:35;13.60;;;6.10;;
77449;SDS011;66536;53.150;18.172;2023-08-12T03:58:02;9.80;;;6.20;;
77449;SDS011;66536;53.150;18.172;2023-08-12T04:00:29;10.00;;;5.70;;
77449;SDS011;66536;53.150;18.172;2023-08-12T04:02:58;8.50;;;5.80;;
77449;SDS011;66536;53.150;18.172;2023-08-12T04:05:24;8.90;;;5.70;;
77449;SDS011;66536;53.150;18.172;2023-08-12T04:07:51;9.90;;;5.80;;
77449;SDS011;66536;53.150;18.172;2023-08-12T04:10:18;11.60;;;6.30;;
77449;SDS011;66536;53.150;18.172;2023-08-12T04:12:45;10.10;;;5.80;;
77449;SDS011;66536;53.150;18.172;2023-08-12T04:15:11;9.00;;;6.10;;
77449;SDS011;66536;53.150;18.172;2023-08-12T04:17:38;8.60;;;6.60;;
77449;SDS011;66536;53.150;18.172;2023-08-12T04:20:07;11.80;;;6.00;;
77449;SDS011;66536;53.150;18.172;2023-08-12T04:22:35;8.90;;;6.10;;
77449;SDS011;66536;53.150;18.172;2023-08-12T04:25:03;12.50;;;6.20;;
77449;SDS011;66536;53.150;18.172;2023-08-12T04:27:30;21.20;;;8.90;;
77449;SDS011;66536;53.150;18.172;2023-08-12T04:29:57;15.80;;;7.80;;
77449;SDS011;66536;53.150;18.172;2023-08-12T04:32:23;20.80;;;8.50;;
77449;SDS011;66536;53.150;18.172;2023-08-12T04:34:50;27.50;;;10.70;;
77449;SDS011;66536;53.150;18.172;2023-08-12T04:37:17;15.10;;;8.00;;
77449;SDS011;66536;53.150;18.172;2023-08-12T04:39:44;17.90;;;6.70;;
77449;SDS011;66536;53.150;18.172;2023-08-12T04:42:12;11.70;;;5.90;;
77449;SDS011;66536;53.150;18.172;2023-08-12T04:44:38;14.30;;;5.60;;
77449;SDS011;66536;53.150;18.172;2023-08-12T04:47:05;12.00;;;5.60;;
77449;SDS011;66536;53.150;18.172;2023-08-12T04:49:32;9.30;;;5.90;;
77449;SDS011;66536;53.150;18.172;2023-08-12T04:51:59;11.70;;;6.60;;
77449;SDS011;66536;53.150;18.172;2023-08-12T04:54:26;11.10;;;6.50;;
77449;SDS011;66536;53.150;18.172;2023-08-12T04:56:53;9.90;;;5.90;;
77449;SDS011;66536;53.150;18.172;2023-08-12T04:59:22;9.10;;;6.00;;
77449;SDS011;66536;53.150;18.172;2023-08-12T05:01:49;12.10;;;6.20;;
77449;SDS011;66536;53.150;18.172;2023-08-12T05:04:15;9.70;;;5.90;;
77449;SDS011;66536;53.150;18.172;2023-08-12T05:06:42;12.10;;;6.40;;
77449;SDS011;66536;53.150;18.172;2023-08-12T05:09:09;8.70;;;6.00;;
77449;SDS011;66536;53.150;18.172;2023-08-12T05:11:36;11.60;;;6.40;;
77449;SDS011;66536;53.150;18.172;2023-08-12T05:14:03;12.70;;;6.80;;
77449;SDS011;66536;53.150;18.172;2023-08-12T05:16:30;8.80;;;6.50;;
77449;SDS011;66536;53.150;18.172;2023-08-12T05:18:57;9.40;;;6.60;;
77449;SDS011;66536;53.150;18.172;2023-08-12T05:21:23;12.80;;;6.60;;
77449;SDS011;66536;53.150;18.172;2023-08-12T05:23:50;9.50;;;6.50;;
77449;SDS011;66536;53.150;18.172;2023-08-12T05:26:17;10.30;;;6.40;;
77449;SDS011;66536;53.150;18.172;2023-08-12T05:28:43;10.80;;;7.00;;
77449;SDS011;66536;53.150;18.172;2023-08-12T05:31:10;12.40;;;6.90;;
77449;SDS011;66536;53.150;18.172;2023-08-12T05:33:37;9.20;;;6.60;;
77449;SDS011;66536;53.150;18.172;2023-08-12T05:36:03;11.60;;;6.70;;
77449;SDS011;66536;53.150;18.172;2023-08-12T05:38:30;11.20;;;6.90;;
77449;SDS011;66536;53.150;18.172;2023-08-12T05:40:56;10.50;;;7.00;;
77449;SDS011;66536;53.150;18.172;2023-08-12T05:43:23;8.70;;;6.70;;
77449;SDS011;66536;53.150;18.172;2023-08-12T05:45:50;12.60;;;6.60;;
77449;SDS011;66536;53.150;18.172;2023-08-12T05:48:16;10.40;;;6.60;;
77449;SDS011;66536;53.150;18.172;2023-08-12T05:50:43;9.60;;;7.00;;
77449;SDS011;66536;53.150;18.172;2023-08-12T05:53:10;14.50;;;7.00;;
77449;SDS011;66536;53.150;18.172;2023-08-12T05:55:36;9.10;;;7.00;;
77449;SDS011;66536;53.150;18.172;2023-08-12T05:58:03;12.30;;;7.00;;
77449;SDS011;66536;53.150;18.172;2023-08-12T06:00:31;11.20;;;6.90;;
77449;SDS011;66536;53.150;18.172;2023-08-12T06:02:57;10.40;;;7.10;;
77449;SDS011;66536;53.150;18.172;2023-08-12T06:05:24;12.70;;;7.50;;
77449;SDS011;66536;53.150;18.172;2023-08-12T06:07:50;8.90;;;7.10;;
77449;SDS011;66536;53.150;18.172;2023-08-12T06:10:17;11.70;;;7.00;;
77449;SDS011;66536;53.150;18.172;2023-08-12T06:12:44;11.70;;;7.70;;
77449;SDS011;66536;53.150;18.172;2023-08-12T06:15:10;15.40;;;7.40;;
77449;SDS011;66536;53.150;18.172;2023-08-12T06:17:37;9.70;;;7.20;;
77449;SDS011;66536;53.150;18.172;2023-08-12T06:20:03;11.20;;;7.00;;
77449;SDS011;66536;53.150;18.172;2023-08-12T06:22:31;10.60;;;6.90;;
77449;SDS011;66536;53.150;18.172;2023-08-12T06:24:57;14.30;;;7.10;;
77449;SDS011;66536;53.150;18.172;2023-08-12T06:27:24;10.80;;;6.80;;
77449;SDS011;66536;53.150;18.172;2023-08-12T06:29:51;9.10;;;6.30;;
77449;SDS011;66536;53.150;18.172;2023-08-12T06:32:17;9.90;;;7.40;;
77449;SDS011;66536;53.150;18.172;2023-08-12T06:34:44;12.00;;;7.00;;
77449;SDS011;66536;53.150;18.172;2023-08-12T06:37:10;10.70;;;6.60;;
77449;SDS011;66536;53.150;18.172;2023-08-12T06:39:37;11.50;;;6.60;;
77449;SDS011;66536;53.150;18.172;2023-08-12T06:42:04;11.60;;;6.20;;
77449;SDS011;66536;53.150;18.172;2023-08-12T06:44:30;12.80;;;6.40;;
77449;SDS011;66536;53.150;18.172;2023-08-12T06:47:00;9.70;;;6.30;;
77449;SDS011;66536;53.150;18.172;2023-08-12T06:49:27;6.30;;;5.40;;
77449;SDS011;66536;53.150;18.172;2023-08-12T06:51:53;10.60;;;5.90;;
77449;SDS011;66536;53.150;18.172;2023-08-12T06:54:20;10.70;;;5.20;;
77449;SDS011;66536;53.150;18.172;2023-08-12T06:56:49;8.50;;;5.20;;
77449;SDS011;66536;53.150;18.172;2023-08-12T06:59:16;8.70;;;4.90;;
77449;SDS011;66536;53.150;18.172;2023-08-12T07:01:42;8.40;;;4.70;;
77449;SDS011;66536;53.150;18.172;2023-08-12T07:04:09;8.10;;;4.90;;
77449;SDS011;66536;53.150;18.172;2023-08-12T07:06:35;7.20;;;4.70;;
77449;SDS011;66536;53.150;18.172;2023-08-12T07:09:02;8.10;;;4.50;;
77449;SDS011;66536;53.150;18.172;2023-08-12T07:11:29;10.20;;;5.20;;
77449;SDS011;66536;53.150;18.172;2023-08-12T07:14:16;8.90;;;4.40;;
77449;SDS011;66536;53.150;18.172;2023-08-12T07:16:42;9.30;;;4.60;;
77449;SDS011;66536;53.150;18.172;2023-08-12T07:19:09;8.10;;;4.30;;
77449;SDS011;66536;53.150;18.172;2023-08-12T07:21:35;9.00;;;4.00;;
77449;SDS011;66536;53.150;18.172;2023-08-12T07:24:02;6.90;;;4.20;;
77449;SDS011;66536;53.150;18.172;2023-08-12T07:26:29;6.70;;;4.30;;
77449;SDS011;66536;53.150;18.172;2023-08-12T07:28:57;6.50;;;3.90;;
77449;SDS011;66536;53.150;18.172;2023-08-12T07:31:24;6.80;;;3.70;;
77449;SDS011;66536;53.150;18.172;2023-08-12T07:33:51;6.70;;;3.30;;
77449;SDS011;66536;53.150;18.172;2023-08-12T07:36:17;7.30;;;3.60;;
77449;SDS011;66536;53.150;18.172;2023-08-12T07:38:44;5.70;;;3.70;;
77449;SDS011;66536;53.150;18.172;2023-08-12T07:41:11;5.40;;;3.60;;
77449;SDS011;66536;53.150;18.172;2023-08-12T07:43:37;5.40;;;3.20;;
77449;SDS011;66536;53.150;18.172;2023-08-12T07:46:07;6.70;;;4.10;;
77449;SDS011;66536;53.150;18.172;2023-08-12T07:48:33;6.00;;;3.70;;
77449;SDS011;66536;53.150;18.172;2023-08-12T07:51:00;5.90;;;3.50;;
77449;SDS011;66536;53.150;18.172;2023-08-12T07:53:26;7.80;;;3.80;;
77449;SDS011;66536;53.150;18.172;2023-08-12T07:55:53;5.70;;;3.90;;
77449;SDS011;66536;53.150;18.172;2023-08-12T07:58:20;10.30;;;3.80;;
77449;SDS011;66536;53.150;18.172;2023-08-12T08:00:47;5.20;;;3.50;;
77449;SDS011;66536;53.150;18.172;2023-08-12T08:03:13;6.50;;;3.20;;
77449;SDS011;66536;53.150;18.172;2023-08-12T08:05:40;8.60;;;3.30;;
77449;SDS011;66536;53.150;18.172;2023-08-12T08:08:08;6.70;;;2.80;;
77449;SDS011;66536;53.150;18.172;2023-08-12T08:10:35;5.20;;;2.60;;
77449;SDS011;66536;53.150;18.172;2023-08-12T08:13:01;9.20;;;2.30;;
77449;SDS011;66536;53.150;18.172;2023-08-12T08:15:28;5.10;;;2.70;;
77449;SDS011;66536;53.150;18.172;2023-08-12T08:17:55;4.40;;;2.50;;
77449;SDS011;66536;53.150;18.172;2023-08-12T08:20:22;4.00;;;2.50;;
77449;SDS011;66536;53.150;18.172;2023-08-12T08:22:48;6.60;;;2.30;;
77449;SDS011;66536;53.150;18.172;2023-08-12T08:25:15;5.10;;;2.30;;
77449;SDS011;66536;53.150;18.172;2023-08-12T08:27:42;6.20;;;2.60;;
77449;SDS011;66536;53.150;18.172;2023-08-12T08:30:09;4.60;;;2.40;;
77449;SDS011;66536;53.150;18.172;2023-08-12T08:32:37;3.10;;;2.30;;
77449;SDS011;66536;53.150;18.172;2023-08-12T08:35:03;6.50;;;2.90;;
77449;SDS011;66536;53.150;18.172;2023-08-12T08:37:32;4.60;;;2.20;;
77449;SDS011;66536;53.150;18.172;2023-08-12T08:39:58;4.10;;;2.20;;
77449;SDS011;66536;53.150;18.172;2023-08-12T08:42:25;3.80;;;2.20;;
77449;SDS011;66536;53.150;18.172;2023-08-12T08:44:52;3.30;;;2.10;;
77449;SDS011;66536;53.150;18.172;2023-08-12T08:47:22;6.20;;;2.90;;
77449;SDS011;66536;53.150;18.172;2023-08-12T08:49:54;4.30;;;2.90;;
77449;SDS011;66536;53.150;18.172;2023-08-12T08:52:23;6.20;;;2.60;;
77449;SDS011;66536;53.150;18.172;2023-08-12T08:54:50;4.50;;;2.90;;
77449;SDS011;66536;53.150;18.172;2023-08-12T08:57:18;5.70;;;2.90;;
77449;SDS011;66536;53.150;18.172;2023-08-12T08:59:45;4.60;;;2.40;;
77449;SDS011;66536;53.150;18.172;2023-08-12T09:02:16;5.60;;;2.90;;
77449;SDS011;66536;53.150;18.172;2023-08-12T09:04:44;6.00;;;2.60;;
77449;SDS011;66536;53.150;18.172;2023-08-12T09:07:12;3.20;;;2.50;;
77449;SDS011;66536;53.150;18.172;2023-08-12T09:09:41;5.00;;;2.60;;
77449;SDS011;66536;53.150;18.172;2023-08-12T09:12:14;8.00;;;2.40;;
77449;SDS011;66536;53.150;18.172;2023-08-12T09:14:42;3.10;;;2.60;;
77449;SDS011;66536;53.150;18.172;2023-08-12T09:17:10;6.60;;;2.50;;
77449;SDS011;66536;53.150;18.172;2023-08-12T09:19:38;4.10;;;2.60;;
77449;SDS011;66536;53.150;18.172;2023-08-12T09:22:05;4.90;;;2.60;;
77449;SDS011;66536;53.150;18.172;2023-08-12T09:24:35;8.00;;;2.60;;
77449;SDS011;66536;53.150;18.172;2023-08-12T09:27:01;5.60;;;2.80;;
77449;SDS011;66536;53.150;18.172;2023-08-12T09:29:29;5.80;;;2.30;;
77449;SDS011;66536;53.150;18.172;2023-08-12T09:32:05;5.20;;;2.60;;
77449;SDS011;66536;53.150;18.172;2023-08-12T09:34:35;6.60;;;2.60;;
77449;SDS011;66536;53.150;18.172;2023-08-12T09:37:03;2.90;;;2.20;;
77449;SDS011;66536;53.150;18.172;2023-08-12T09:39:30;4.40;;;1.90;;
77449;SDS011;66536;53.150;18.172;2023-08-12T09:41:57;5.60;;;2.10;;
77449;SDS011;66536;53.150;18.172;2023-08-12T09:44:24;4.30;;;2.30;;
77449;SDS011;66536;53.150;18.172;2023-08-12T09:46:56;5.90;;;2.60;;
77449;SDS011;66536;53.150;18.172;2023-08-12T09:49:25;4.60;;;2.30;;
77449;SDS011;66536;53.150;18.172;2023-08-12T09:51:52;3.70;;;2.20;;
77449;SDS011;66536;53.150;18.172;2023-08-12T09:54:20;3.10;;;2.30;;
77449;SDS011;66536;53.150;18.172;2023-08-12T09:56:48;4.30;;;2.60;;
77449;SDS011;66536;53.150;18.172;2023-08-12T09:59:19;3.90;;;2.30;;
77449;SDS011;66536;53.150;18.172;2023-08-12T10:01:49;4.80;;;2.20;;
77449;SDS011;66536;53.150;18.172;2023-08-12T10:04:17;7.00;;;2.50;;
77449;SDS011;66536;53.150;18.172;2023-08-12T10:06:47;3.60;;;2.20;;
77449;SDS011;66536;53.150;18.172;2023-08-12T10:09:16;3.80;;;2.40;;
77449;SDS011;66536;53.150;18.172;2023-08-12T10:11:42;4.30;;;2.60;;
77449;SDS011;66536;53.150;18.172;2023-08-12T10:14:10;3.30;;;2.40;;
77449;SDS011;66536;53.150;18.172;2023-08-12T10:16:37;3.80;;;2.00;;
77449;SDS011;66536;53.150;18.172;2023-08-12T10:19:11;4.80;;;2.60;;
77449;SDS011;66536;53.150;18.172;2023-08-12T10:21:38;6.40;;;2.30;;
77449;SDS011;66536;53.150;18.172;2023-08-12T10:24:05;5.10;;;2.30;;
77449;SDS011;66536;53.150;18.172;2023-08-12T10:26:34;6.10;;;2.30;;
77449;SDS011;66536;53.150;18.172;2023-08-12T10:29:00;4.90;;;2.50;;
77449;SDS011;66536;53.150;18.172;2023-08-12T10:31:27;6.10;;;2.20;;
77449;SDS011;66536;53.150;18.172;2023-08-12T10:33:56;6.60;;;2.40;;
77449;SDS011;66536;53.150;18.172;2023-08-12T10:36:26;3.00;;;2.30;;
77449;SDS011;66536;53.150;18.172;2023-08-12T10:38:53;3.60;;;2.50;;
77449;SDS011;66536;53.150;18.172;2023-08-12T10:41:21;4.20;;;2.00;;
77449;SDS011;66536;53.150;18.172;2023-08-12T10:43:50;5.00;;;2.00;;
77449;SDS011;66536;53.150;18.172;2023-08-12T10:46:22;5.50;;;2.50;;
77449;SDS011;66536;53.150;18.172;2023-08-12T10:48:56;3.20;;;2.10;;
77449;SDS011;66536;53.150;18.172;2023-08-12T10:52:00;7.30;;;2.10;;
77449;SDS011;66536;53.150;18.172;2023-08-12T10:54:22;5.30;;;2.60;;
77449;SDS011;66536;53.150;18.172;2023-08-12T11:02:24;3.90;;;2.60;;
77449;SDS011;66536;53.150;18.172;2023-08-12T11:05:03;4.20;;;2.80;;
77449;SDS011;66536;53.150;18.172;2023-08-12T11:07:38;4.10;;;2.60;;
77449;SDS011;66536;53.150;18.172;2023-08-12T11:10:10;6.50;;;2.80;;
77449;SDS011;66536;53.150;18.172;2023-08-12T11:12:39;6.50;;;2.70;;
77449;SDS011;66536;53.150;18.172;2023-08-12T11:15:06;5.30;;;2.60;;
77449;SDS011;66536;53.150;18.172;2023-08-12T11:17:37;4.50;;;2.40;;
77449;SDS011;66536;53.150;18.172;2023-08-12T11:20:06;7.70;;;2.80;;
77449;SDS011;66536;53.150;18.172;2023-08-12T11:22:37;6.60;;;2.90;;
77449;SDS011;66536;53.150;18.172;2023-08-12T11:25:06;6.00;;;2.50;;
77449;SDS011;66536;53.150;18.172;2023-08-12T11:27:42;4.60;;;2.40;;
77449;SDS011;66536;53.150;18.172;2023-08-12T11:30:11;5.20;;;2.50;;
77449;SDS011;66536;53.150;18.172;2023-08-12T11:32:43;3.30;;;2.50;;
77449;SDS011;66536;53.150;18.172;2023-08-12T11:35:11;5.70;;;2.90;;
77449;SDS011;66536;53.150;18.172;2023-08-12T11:37:39;3.40;;;2.40;;
77449;SDS011;66536;53.150;18.172;2023-08-12T11:40:08;4.10;;;2.20;;
77449;SDS011;66536;53.150;18.172;2023-08-12T11:42:38;3.90;;;3.00;;
77449;SDS011;66536;53.150;18.172;2023-08-12T11:45:06;6.10;;;2.50;;
77449;SDS011;66536;53.150;18.172;2023-08-12T11:47:33;3.70;;;2.50;;
77449;SDS011;66536;53.150;18.172;2023-08-12T11:50:02;6.40;;;2.60;;
77449;SDS011;66536;53.150;18.172;2023-08-12T11:52:31;3.00;;;2.70;;
77449;SDS011;66536;53.150;18.172;2023-08-12T11:54:58;5.60;;;3.10;;
77449;SDS011;66536;53.150;18.172;2023-08-12T11:57:26;9.00;;;3.20;;
77449;SDS011;66536;53.150;18.172;2023-08-12T12:00:01;7.20;;;3.30;;
77449;SDS011;66536;53.150;18.172;2023-08-12T12:02:40;4.40;;;3.10;;
77449;SDS011;66536;53.150;18.172;2023-08-12T12:05:11;5.80;;;3.00;;
77449;SDS011;66536;53.150;18.172;2023-08-12T12:07:39;6.60;;;3.10;;
77449;SDS011;66536;53.150;18.172;2023-08-12T12:10:06;5.00;;;2.90;;
77449;SDS011;66536;53.150;18.172;2023-08-12T12:12:34;6.40;;;2.50;;
77449;SDS011;66536;53.150;18.172;2023-08-12T12:15:02;7.20;;;3.30;;
77449;SDS011;66536;53.150;18.172;2023-08-12T12:17:32;6.00;;;3.40;;
77449;SDS011;66536;53.150;18.172;2023-08-12T12:19:59;4.40;;;2.90;;
77449;SDS011;66536;53.150;18.172;2023-08-12T12:22:28;4.00;;;3.00;;
77449;SDS011;66536;53.150;18.172;2023-08-12T12:24:57;6.40;;;2.10;;
77449;SDS011;66536;53.150;18.172;2023-08-12T12:27:27;4.50;;;2.80;;
77449;SDS011;66536;53.150;18.172;2023-08-12T12:29:54;9.90;;;4.20;;
77449;SDS011;66536;53.150;18.172;2023-08-12T12:32:21;5.30;;;2.30;;
77449;SDS011;66536;53.150;18.172;2023-08-12T12:34:48;4.30;;;3.60;;
77449;SDS011;66536;53.150;18.172;2023-08-12T12:37:16;3.80;;;2.30;;
77449;SDS011;66536;53.150;18.172;2023-08-12T12:39:42;4.30;;;3.50;;
77449;SDS011;66536;53.150;18.172;2023-08-12T12:42:10;5.60;;;3.10;;
77449;SDS011;66536;53.150;18.172;2023-08-12T12:44:37;7.70;;;3.00;;
77449;SDS011;66536;53.150;18.172;2023-08-12T12:47:03;4.90;;;2.80;;
77449;SDS011;66536;53.150;18.172;2023-08-12T12:49:30;4.10;;;2.70;;
77449;SDS011;66536;53.150;18.172;2023-08-12T12:51:57;3.00;;;2.60;;
77449;SDS011;66536;53.150;18.172;2023-08-12T12:54:23;4.40;;;3.00;;
77449;SDS011;66536;53.150;18.172;2023-08-12T12:56:50;5.20;;;2.70;;
77449;SDS011;66536;53.150;18.172;2023-08-12T12:59:17;2.70;;;2.50;;
77449;SDS011;66536;53.150;18.172;2023-08-12T13:01:44;4.20;;;2.30;;
77449;SDS011;66536;53.150;18.172;2023-08-12T13:04:11;5.00;;;2.80;;
77449;SDS011;66536;53.150;18.172;2023-08-12T13:06:37;6.40;;;3.20;;
77449;SDS011;66536;53.150;18.172;2023-08-12T13:09:05;7.90;;;3.10;;
77449;SDS011;66536;53.150;18.172;2023-08-12T13:11:32;6.40;;;2.80;;
77449;SDS011;66536;53.150;18.172;2023-08-12T13:14:02;6.50;;;2.90;;
77449;SDS011;66536;53.150;18.172;2023-08-12T13:16:29;7.00;;;2.80;;
77449;SDS011;66536;53.150;18.172;2023-08-12T13:18:56;5.10;;;3.00;;
77449;SDS011;66536;53.150;18.172;2023-08-12T13:21:25;5.60;;;2.70;;
77449;SDS011;66536;53.150;18.172;2023-08-12T13:23:52;5.60;;;2.80;;
77449;SDS011;66536;53.150;18.172;2023-08-12T13:26:19;6.80;;;2.70;;
77449;SDS011;66536;53.150;18.172;2023-08-12T13:28:46;6.00;;;2.80;;
77449;SDS011;66536;53.150;18.172;2023-08-12T13:31:14;5.70;;;2.90;;
77449;SDS011;66536;53.150;18.172;2023-08-12T13:33:41;3.50;;;2.90;;
77449;SDS011;66536;53.150;18.172;2023-08-12T13:36:07;6.10;;;2.70;;
77449;SDS011;66536;53.150;18.172;2023-08-12T13:38:34;4.60;;;2.60;;
77449;SDS011;66536;53.150;18.172;2023-08-12T13:41:01;4.80;;;2.70;;
77449;SDS011;66536;53.150;18.172;2023-08-12T13:43:27;3.60;;;2.90;;
77449;SDS011;66536;53.150;18.172;2023-08-12T13:45:54;6.10;;;2.40;;
77449;SDS011;66536;53.150;18.172;2023-08-12T13:48:21;2.80;;;2.30;;
77449;SDS011;66536;53.150;18.172;2023-08-12T13:50:47;7.60;;;2.60;;
77449;SDS011;66536;53.150;18.172;2023-08-12T13:53:15;5.20;;;2.70;;
77449;SDS011;66536;53.150;18.172;2023-08-12T13:55:42;5.50;;;2.70;;
77449;SDS011;66536;53.150;18.172;2023-08-12T13:58:09;3.10;;;2.50;;
77449;SDS011;66536;53.150;18.172;2023-08-12T14:00:35;4.10;;;2.60;;
77449;SDS011;66536;53.150;18.172;2023-08-12T14:03:02;5.10;;;2.50;;
77449;SDS011;66536;53.150;18.172;2023-08-12T14:05:29;4.50;;;3.20;;
77449;SDS011;66536;53.150;18.172;2023-08-12T14:07:56;3.30;;;2.60;;
77449;SDS011;66536;53.150;18.172;2023-08-12T14:10:42;4.70;;;2.90;;
77449;SDS011;66536;53.150;18.172;2023-08-12T14:13:09;3.90;;;3.00;;
77449;SDS011;66536;53.150;18.172;2023-08-12T14:15:36;4.30;;;2.50;;
77449;SDS011;66536;53.150;18.172;2023-08-12T14:18:03;4.30;;;2.60;;
77449;SDS011;66536;53.150;18.172;2023-08-12T14:20:31;3.70;;;2.70;;
77449;SDS011;66536;53.150;18.172;2023-08-12T14:22:57;4.30;;;3.10;;
77449;SDS011;66536;53.150;18.172;2023-08-12T14:25:24;4.70;;;2.70;;
77449;SDS011;66536;53.150;18.172;2023-08-12T14:27:50;5.00;;;3.20;;
77449;SDS011;66536;53.150;18.172;2023-08-12T14:30:18;6.30;;;3.00;;
77449;SDS011;66536;53.150;18.172;2023-08-12T14:32:46;4.50;;;2.90;;
77449;SDS011;66536;53.150;18.172;2023-08-12T14:35:12;4.20;;;2.10;;
77449;SDS011;66536;53.150;18.172;2023-08-12T14:37:39;2.70;;;2.50;;
77449;SDS011;66536;53.150;18.172;2023-08-12T14:40:06;5.10;;;2.60;;
77449;SDS011;66536;53.150;18.172;2023-08-12T14:42:33;6.20;;;2.90;;